Time;durP1;ratioP1;P1;durP2;ratioP2;P2;SDS_P1;SDS_P2;PMS_P1;PMS_P2;Temp;Humidity;BMP_temperature;BMP_pressure;BME280_temperature;BME280_humidity;BME280_pressure;Samples;Min_cycle;Max_cycle;Signal;HPM_P1;HPM_P2
2023/09/13 00:00:09;;;;;;;17.30;15.50;;;20.40;99.90;;;;;;4974110;28;20465;-77
2023/09/13 00:02:36;;;;;;;17.47;15.63;;;20.30;99.90;;;;;;4974216;28;20467;-78
2023/09/13 00:05:04;;;;;;;17.67;15.90;;;20.30;99.90;;;;;;4974327;28;20539;-78
2023/09/13 00:07:31;;;;;;;17.20;15.40;;;20.20;99.90;;;;;;4973817;28;20502;-77
2023/09/13 00:09:58;;;;;;;19.50;17.00;;;20.20;99.90;;;;;;4974004;28;20543;-78
2023/09/13 00:12:25;;;;;;;17.87;15.97;;;20.20;99.90;;;;;;4974241;28;20542;-77
2023/09/13 00:14:52;;;;;;;18.23;14.00;;;20.10;99.90;;;;;;4974020;28;20977;-77
2023/09/13 00:17:23;;;;;;;15.27;13.67;;;20.10;99.90;;;;;;4973748;28;20599;-76
2023/09/13 00:19:50;;;;;;;19.73;15.50;;;20.10;99.90;;;;;;4975675;28;20486;-77
2023/09/13 00:22:17;;;;;;;16.67;14.53;;;20.10;99.90;;;;;;4973671;28;20462;-78
2023/09/13 00:24:44;;;;;;;20.70;14.83;;;20.10;99.90;;;;;;4973640;28;20634;-77
2023/09/13 00:27:10;;;;;;;15.43;12.90;;;20.10;99.90;;;;;;4973120;28;20495;-77
2023/09/13 00:29:38;;;;;;;19.03;15.53;;;20.10;99.90;;;;;;4973599;28;20469;-77
2023/09/13 00:32:05;;;;;;;15.90;13.77;;;20.10;99.90;;;;;;4973406;28;20486;-77
2023/09/13 00:34:34;;;;;;;15.63;14.03;;;20.10;99.90;;;;;;4973717;28;20550;-78
2023/09/13 00:37:00;;;;;;;16.13;14.40;;;20.10;99.90;;;;;;4973106;28;20459;-78
2023/09/13 00:39:27;;;;;;;20.73;15.50;;;20.10;99.90;;;;;;4974785;28;20981;-77
2023/09/13 00:41:54;;;;;;;20.03;15.60;;;20.10;99.90;;;;;;4973483;28;20456;-77
2023/09/13 00:44:21;;;;;;;17.93;14.70;;;20.10;99.90;;;;;;4973064;28;20542;-77
2023/09/13 00:46:49;;;;;;;26.13;21.43;;;20.10;99.90;;;;;;4972567;28;20491;-77
2023/09/13 00:49:16;;;;;;;18.40;15.80;;;20.10;99.90;;;;;;4973025;28;20471;-77
2023/09/13 00:51:44;;;;;;;18.33;16.53;;;20.20;99.90;;;;;;4973129;28;20554;-77
2023/09/13 00:54:11;;;;;;;20.37;18.30;;;20.20;99.90;;;;;;4972196;28;20546;-77
2023/09/13 00:56:39;;;;;;;18.93;17.00;;;20.30;99.90;;;;;;4972535;28;20466;-77
2023/09/13 00:59:08;;;;;;;25.13;20.00;;;20.30;99.90;;;;;;4972473;28;20490;-77
2023/09/13 01:01:35;;;;;;;20.10;17.33;;;20.20;99.90;;;;;;4973112;28;20460;-77
2023/09/13 01:04:02;;;;;;;25.00;20.87;;;20.30;99.90;;;;;;4972628;28;20462;-77
2023/09/13 01:06:29;;;;;;;43.40;29.70;;;20.30;99.90;;;;;;4973049;28;20899;-77
2023/09/13 01:08:58;;;;;;;35.07;26.60;;;20.30;99.90;;;;;;4972370;28;20866;-76
2023/09/13 01:11:26;;;;;;;29.10;26.03;;;20.30;99.90;;;;;;4972614;28;20466;-77
2023/09/13 01:13:52;;;;;;;29.20;26.07;;;20.30;99.90;;;;;;4972742;28;20530;-76
2023/09/13 01:16:26;;;;;;;36.30;30.33;;;20.40;99.90;;;;;;4972823;28;20463;-77
2023/09/13 01:19:00;;;;;;;35.17;29.00;;;20.40;99.90;;;;;;4972770;28;20558;-77
2023/09/13 01:21:37;;;;;;;43.10;33.40;;;20.40;99.90;;;;;;4972755;28;20458;-77
2023/09/13 01:24:30;;;;;;;37.97;32.20;;;20.40;99.90;;;;;;4972519;28;20890;-78
2023/09/13 01:27:17;;;;;;;40.10;31.43;;;20.50;99.90;;;;;;4972564;28;20504;-77
2023/09/13 01:29:46;;;;;;;36.90;31.90;;;20.50;99.90;;;;;;4972554;28;20459;-77
2023/09/13 01:32:13;;;;;;;35.60;29.97;;;20.50;99.90;;;;;;4972526;28;20498;-79
2023/09/13 01:34:40;;;;;;;41.80;34.57;;;20.50;99.90;;;;;;4972388;28;20960;-77
2023/09/13 01:37:07;;;;;;;37.63;32.57;;;20.50;99.90;;;;;;4972358;28;20534;-77
2023/09/13 01:39:34;;;;;;;36.70;32.80;;;20.60;99.90;;;;;;4972791;28;20447;-77
2023/09/13 01:42:07;;;;;;;39.50;34.17;;;20.60;99.90;;;;;;4972763;28;20444;-77
2023/09/13 01:44:35;;;;;;;34.10;30.40;;;20.60;99.90;;;;;;4972749;28;20542;-76
2023/09/13 01:47:05;;;;;;;37.37;31.07;;;20.60;99.90;;;;;;4971916;28;20506;-77
2023/09/13 01:49:33;;;;;;;37.10;32.70;;;20.70;99.90;;;;;;4972684;28;20451;-77
2023/09/13 01:52:00;;;;;;;38.10;32.97;;;20.70;99.90;;;;;;4972194;28;20949;-78
2023/09/13 01:54:27;;;;;;;36.10;32.20;;;20.70;99.90;;;;;;4972513;28;20459;-77
2023/09/13 01:56:54;;;;;;;52.07;37.30;;;20.80;99.90;;;;;;4973480;28;20832;-76
2023/09/13 01:59:20;;;;;;;43.30;38.33;;;20.80;99.90;;;;;;4973432;28;20481;-78
2023/09/13 02:01:47;;;;;;;36.33;32.40;;;20.70;99.90;;;;;;4973916;28;20481;-78
2023/09/13 02:04:15;;;;;;;47.30;37.03;;;20.70;99.90;;;;;;4974723;28;20463;-78
2023/09/13 02:06:42;;;;;;;56.80;41.90;;;20.60;99.90;;;;;;4977020;28;20466;-78
2023/09/13 02:09:10;;;;;;;48.63;39.67;;;20.60;99.90;;;;;;4978250;28;20489;-78
2023/09/13 02:11:37;;;;;;;57.07;44.27;;;20.50;99.90;;;;;;4978513;28;20471;-78
2023/09/13 02:14:04;;;;;;;47.93;41.20;;;20.40;99.90;;;;;;4978344;28;20550;-77
2023/09/13 02:16:30;;;;;;;46.90;37.03;;;20.40;99.90;;;;;;4978820;28;20474;-78
2023/09/13 02:18:57;;;;;;;35.70;29.33;;;20.40;99.90;;;;;;4978136;28;20479;-78
2023/09/13 02:21:25;;;;;;;37.43;30.93;;;20.30;99.90;;;;;;4978051;28;20451;-77
2023/09/13 02:23:53;;;;;;;34.37;30.40;;;20.30;99.90;;;;;;4978173;28;20463;-78
2023/09/13 02:26:21;;;;;;;33.40;27.80;;;20.30;99.90;;;;;;4977323;28;20917;-78
2023/09/13 02:28:48;;;;;;;29.80;25.33;;;20.30;99.90;;;;;;4976479;28;20582;-78
2023/09/13 02:31:20;;;;;;;23.17;20.73;;;20.30;99.90;;;;;;4977551;28;20546;-77
2023/09/13 02:33:47;;;;;;;23.77;20.57;;;20.20;99.90;;;;;;4977253;28;20448;-78
2023/09/13 02:36:14;;;;;;;20.90;17.73;;;20.20;99.90;;;;;;4977828;28;20455;-77
2023/09/13 02:38:42;;;;;;;21.43;19.10;;;20.20;99.90;;;;;;4977333;28;20479;-77
2023/09/13 02:41:09;;;;;;;18.80;17.00;;;20.20;99.90;;;;;;4977424;28;20848;-78
2023/09/13 02:43:36;;;;;;;19.20;17.20;;;20.20;99.90;;;;;;4986207;28;20470;-77
2023/09/13 02:46:03;;;;;;;19.00;16.93;;;20.20;99.90;;;;;;4982954;28;20567;-77
2023/09/13 02:48:30;;;;;;;22.20;19.00;;;20.10;99.90;;;;;;4976718;28;20510;-77
2023/09/13 02:50:57;;;;;;;20.70;17.43;;;20.10;99.90;;;;;;4977612;28;20499;-77
2023/09/13 02:53:24;;;;;;;20.30;18.20;;;20.00;99.90;;;;;;4977663;28;20470;-78
2023/09/13 02:55:52;;;;;;;23.00;20.00;;;20.10;99.90;;;;;;4976622;28;20455;-77
2023/09/13 02:58:18;;;;;;;28.67;22.17;;;20.00;99.90;;;;;;4976775;28;20499;-76
2023/09/13 03:00:46;;;;;;;31.57;24.00;;;20.00;99.90;;;;;;4977681;28;20452;-78
2023/09/13 03:03:13;;;;;;;35.80;25.93;;;20.00;99.90;;;;;;4981229;28;20517;-77
2023/09/13 03:05:39;;;;;;;31.70;25.97;;;20.00;99.90;;;;;;4980577;28;20458;-78
2023/09/13 03:08:07;;;;;;;30.70;25.03;;;20.00;99.90;;;;;;4980654;28;20503;-77
2023/09/13 03:10:35;;;;;;;30.33;26.13;;;19.90;99.90;;;;;;4979667;28;20472;-77
2023/09/13 03:13:03;;;;;;;37.33;28.40;;;19.90;99.90;;;;;;4981215;28;20980;-77
2023/09/13 03:15:33;;;;;;;37.17;31.27;;;19.80;99.90;;;;;;4979905;28;20459;-78
2023/09/13 03:18:00;;;;;;;41.27;34.60;;;19.80;99.90;;;;;;4977890;28;21068;-77
2023/09/13 03:20:27;;;;;;;38.00;31.33;;;19.70;99.90;;;;;;4979912;28;20991;-78
2023/09/13 03:22:55;;;;;;;38.00;31.53;;;19.70;99.90;;;;;;4979913;28;20455;-78
2023/09/13 03:25:22;;;;;;;40.70;29.23;;;19.70;99.90;;;;;;4979481;28;20543;-78
2023/09/13 03:27:49;;;;;;;36.50;27.37;;;19.70;99.90;;;;;;4978582;28;20499;-78
2023/09/13 03:30:17;;;;;;;32.93;25.40;;;19.60;99.90;;;;;;4981225;28;20513;-77
2023/09/13 03:32:44;;;;;;;30.87;25.00;;;19.70;99.90;;;;;;4982809;28;20460;-77
2023/09/13 03:35:11;;;;;;;30.30;23.70;;;19.70;99.90;;;;;;4981230;28;20863;-77
2023/09/13 03:37:37;;;;;;;30.77;24.37;;;19.70;99.90;;;;;;4978424;28;20476;-77
2023/09/13 03:40:06;;;;;;;35.80;25.87;;;19.70;99.90;;;;;;4977292;28;20462;-78
2023/09/13 03:42:33;;;;;;;32.43;27.03;;;19.70;99.90;;;;;;4975887;28;20459;-77
2023/09/13 03:45:00;;;;;;;30.37;24.30;;;19.70;99.90;;;;;;4976230;28;20907;-77
2023/09/13 03:47:28;;;;;;;32.10;25.90;;;19.70;99.90;;;;;;4975403;28;20503;-77
2023/09/13 03:49:55;;;;;;;28.03;23.30;;;19.60;99.90;;;;;;4975220;28;20460;-77
2023/09/13 03:52:22;;;;;;;26.13;23.17;;;19.60;99.90;;;;;;4975328;28;20466;-77
2023/09/13 03:54:48;;;;;;;27.90;23.90;;;19.70;99.90;;;;;;4975239;28;20455;-77
2023/09/13 03:57:15;;;;;;;28.70;22.17;;;19.70;99.90;;;;;;4974510;28;20470;-78
2023/09/13 03:59:42;;;;;;;25.10;22.40;;;19.70;99.90;;;;;;4973001;28;20459;-76
2023/09/13 04:02:09;;;;;;;27.47;22.97;;;19.70;99.90;;;;;;4980359;28;20454;-77
2023/09/13 04:04:37;;;;;;;26.17;22.23;;;19.70;99.90;;;;;;4976533;28;20454;-77
2023/09/13 04:07:05;;;;;;;25.30;21.60;;;19.70;99.90;;;;;;4973380;28;20957;-76
2023/09/13 04:09:31;;;;;;;27.70;23.50;;;19.70;99.90;;;;;;4973893;28;20467;-76
2023/09/13 04:11:58;;;;;;;29.87;25.53;;;19.70;99.90;;;;;;4972259;28;20481;-76
2023/09/13 04:14:25;;;;;;;29.60;24.70;;;19.70;99.90;;;;;;4973103;28;20461;-76
2023/09/13 04:16:52;;;;;;;27.67;24.77;;;19.80;99.90;;;;;;4975145;28;20459;-79
2023/09/13 04:19:19;;;;;;;32.57;27.10;;;19.80;99.90;;;;;;4975305;28;20482;-77
2023/09/13 04:21:47;;;;;;;40.87;30.47;;;19.70;99.90;;;;;;4979442;28;20458;-79
2023/09/13 04:24:13;;;;;;;37.53;28.33;;;19.70;99.90;;;;;;4975622;28;20466;-78
2023/09/13 04:26:40;;;;;;;33.83;28.83;;;19.80;99.90;;;;;;4976300;28;20459;-78
2023/09/13 04:29:07;;;;;;;37.43;28.83;;;19.80;99.90;;;;;;4975840;28;20889;-79
2023/09/13 04:31:34;;;;;;;34.67;29.20;;;19.80;99.90;;;;;;4977278;28;20522;-79
2023/09/13 04:34:01;;;;;;;45.23;32.57;;;19.80;99.90;;;;;;4976974;28;20455;-79
2023/09/13 04:36:27;;;;;;;38.67;29.87;;;19.80;99.90;;;;;;4977189;28;20486;-78
2023/09/13 04:38:55;;;;;;;38.37;28.80;;;19.80;99.90;;;;;;4977031;28;20478;-79
2023/09/13 04:41:22;;;;;;;39.43;30.53;;;19.80;99.90;;;;;;4976899;28;20466;-78
2023/09/13 04:43:49;;;;;;;41.30;32.30;;;19.80;99.90;;;;;;4976956;28;20462;-79
2023/09/13 04:46:16;;;;;;;44.27;35.20;;;19.80;99.90;;;;;;4976710;28;20980;-79
2023/09/13 04:48:43;;;;;;;41.20;32.70;;;19.80;99.90;;;;;;4976923;28;21033;-77
2023/09/13 04:51:11;;;;;;;41.67;33.57;;;19.80;99.90;;;;;;4976888;28;20559;-78
2023/09/13 04:53:37;;;;;;;39.50;32.50;;;19.70;99.90;;;;;;4976524;28;20447;-79
2023/09/13 04:56:06;;;;;;;41.57;29.30;;;19.80;99.90;;;;;;4976152;28;20459;-77
2023/09/13 04:58:33;;;;;;;38.17;32.37;;;19.80;99.90;;;;;;4975818;28;20921;-79
2023/09/13 05:00:59;;;;;;;41.73;33.30;;;19.70;99.90;;;;;;4975860;28;20463;-79
2023/09/13 05:03:26;;;;;;;38.60;31.17;;;19.70;99.90;;;;;;4974771;28;20462;-77
2023/09/13 05:05:53;;;;;;;36.37;29.80;;;19.70;99.90;;;;;;4975510;28;20975;-79
2023/09/13 05:08:20;;;;;;;34.20;30.20;;;19.60;99.90;;;;;;4975701;28;20509;-79
2023/09/13 05:10:47;;;;;;;31.67;26.23;;;19.70;99.90;;;;;;4976113;28;20471;-79
2023/09/13 05:13:15;;;;;;;30.97;27.10;;;19.70;99.90;;;;;;4974867;28;20461;-79
2023/09/13 05:15:45;;;;;;;30.27;26.83;;;19.70;99.90;;;;;;4976583;28;20455;-79
2023/09/13 05:18:12;;;;;;;28.33;25.30;;;19.70;99.90;;;;;;4976054;28;20605;-80
2023/09/13 05:20:39;;;;;;;29.90;25.00;;;19.70;99.90;;;;;;4976334;28;20466;-79
2023/09/13 05:23:06;;;;;;;30.03;26.13;;;19.70;99.90;;;;;;4975846;28;20468;-79
2023/09/13 05:25:33;;;;;;;33.13;26.37;;;19.70;99.90;;;;;;4976461;28;20461;-79
2023/09/13 05:28:00;;;;;;;28.33;24.77;;;19.70;99.90;;;;;;4976682;28;20503;-79
2023/09/13 05:30:32;;;;;;;28.17;25.07;;;19.70;99.90;;;;;;4976657;28;20452;-80
2023/09/13 05:32:59;;;;;;;29.03;24.47;;;19.60;99.90;;;;;;4976587;28;20470;-80
2023/09/13 05:35:26;;;;;;;28.97;24.60;;;19.60;99.90;;;;;;4976975;28;20447;-79
2023/09/13 05:37:52;;;;;;;29.73;25.70;;;19.60;99.90;;;;;;4976088;28;20577;-79
2023/09/13 05:40:19;;;;;;;27.30;24.23;;;19.60;99.90;;;;;;4977517;28;20459;-79
2023/09/13 05:42:46;;;;;;;28.70;24.90;;;19.60;99.90;;;;;;4980729;28;20542;-79
2023/09/13 05:45:13;;;;;;;34.00;26.97;;;19.60;99.90;;;;;;4980854;28;20455;-80
2023/09/13 05:47:41;;;;;;;47.10;36.13;;;19.60;99.90;;;;;;4980556;28;20558;-79
2023/09/13 05:50:08;;;;;;;52.73;39.93;;;19.60;99.90;;;;;;4981416;28;20543;-79
2023/09/13 05:52:37;;;;;;;83.57;44.10;;;19.60;99.90;;;;;;4981943;28;20455;-79
2023/09/13 05:55:04;;;;;;;65.40;41.93;;;19.60;99.90;;;;;;4982113;28;20461;-79
2023/09/13 05:57:31;;;;;;;74.33;45.70;;;19.60;99.90;;;;;;4984967;28;20478;-83
2023/09/13 05:59:58;;;;;;;71.00;45.37;;;19.50;99.90;;;;;;4984373;28;20973;-78
2023/09/13 06:02:25;;;;;;;75.43;46.10;;;19.50;99.90;;;;;;4986637;28;21024;-78
2023/09/13 06:04:53;;;;;;;64.10;42.90;;;19.50;99.90;;;;;;4985726;28;20491;-78
2023/09/13 06:07:19;;;;;;;68.53;42.90;;;19.50;99.90;;;;;;4985343;28;20465;-78
2023/09/13 06:09:47;;;;;;;92.93;48.33;;;19.60;99.90;;;;;;4985110;28;20862;-78
2023/09/13 06:12:14;;;;;;;90.53;46.77;;;19.60;99.90;;;;;;4983593;28;20459;-79
2023/09/13 06:14:41;;;;;;;64.73;43.07;;;19.60;99.90;;;;;;4981779;28;20558;-78
2023/09/13 06:17:07;;;;;;;60.40;41.23;;;19.60;99.90;;;;;;4979418;28;20558;-79
2023/09/13 06:19:34;;;;;;;70.73;44.77;;;19.50;99.90;;;;;;4984141;28;20469;-79
2023/09/13 06:22:03;;;;;;;55.30;38.80;;;19.50;99.90;;;;;;4984375;28;20546;-79
2023/09/13 06:24:29;;;;;;;59.80;40.53;;;19.50;99.90;;;;;;4983989;28;20829;-79
2023/09/13 06:26:56;;;;;;;74.77;43.97;;;19.40;99.90;;;;;;4983282;28;20486;-79
2023/09/13 06:29:23;;;;;;;56.47;39.07;;;19.30;99.90;;;;;;4979264;28;20495;-79
2023/09/13 06:31:50;;;;;;;57.57;38.97;;;19.30;99.90;;;;;;4980554;28;20479;-79
2023/09/13 06:34:17;;;;;;;55.03;39.37;;;19.30;99.90;;;;;;4980240;28;20941;-78
2023/09/13 06:36:44;;;;;;;63.23;40.10;;;19.30;99.90;;;;;;4982242;28;20557;-79
2023/09/13 06:39:12;;;;;;;54.27;37.50;;;19.30;99.90;;;;;;4979708;28;20477;-80
2023/09/13 06:41:39;;;;;;;73.87;41.80;;;19.30;99.90;;;;;;4979647;28;20826;-79
2023/09/13 06:44:09;;;;;;;52.97;36.90;;;19.40;99.90;;;;;;4978153;28;20465;-79
2023/09/13 06:46:36;;;;;;;58.87;38.47;;;19.40;99.90;;;;;;4980322;28;20850;-79
2023/09/13 06:49:03;;;;;;;72.47;44.60;;;19.40;99.90;;;;;;4980263;28;21013;-79
2023/09/13 06:51:30;;;;;;;69.00;42.00;;;19.40;99.90;;;;;;4984164;28;20459;-79
2023/09/13 06:53:57;;;;;;;55.83;37.70;;;19.30;99.90;;;;;;4981212;28;20832;-79
2023/09/13 06:56:25;;;;;;;61.17;38.73;;;19.20;99.90;;;;;;4983084;28;20511;-80
2023/09/13 06:58:52;;;;;;;61.00;37.23;;;19.20;99.90;;;;;;4979934;28;20471;-79
2023/09/13 07:01:20;;;;;;;55.57;37.47;;;19.20;99.90;;;;;;4981474;28;20511;-78
2023/09/13 07:03:47;;;;;;;56.13;36.73;;;19.30;99.90;;;;;;4979314;28;20980;-79
2023/09/13 07:06:13;;;;;;;57.50;37.57;;;19.30;99.90;;;;;;4979851;28;20769;-78
2023/09/13 07:08:40;;;;;;;61.70;39.60;;;19.30;99.90;;;;;;4979863;28;20562;-78
2023/09/13 07:11:07;;;;;;;51.43;36.33;;;19.30;99.90;;;;;;4979377;28;20910;-78
2023/09/13 07:13:35;;;;;;;46.97;32.57;;;19.40;99.90;;;;;;4985166;28;20465;-78
2023/09/13 07:16:02;;;;;;;47.40;33.80;;;19.40;99.90;;;;;;4976325;28;20466;-78
2023/09/13 07:18:29;;;;;;;57.67;36.27;;;19.50;99.90;;;;;;4977514;28;20481;-78
2023/09/13 07:20:56;;;;;;;52.03;33.00;;;19.50;99.90;;;;;;4982713;28;20464;-83
2023/09/13 07:23:23;;;;;;;45.93;34.13;;;19.50;99.90;;;;;;4983521;28;20491;-78
2023/09/13 07:25:50;;;;;;;49.63;34.07;;;19.50;99.90;;;;;;4982136;28;20471;-78
2023/09/13 07:28:17;;;;;;;38.60;32.00;;;19.60;99.90;;;;;;4976181;28;21026;-77
2023/09/13 07:30:45;;;;;;;43.70;31.80;;;19.50;99.90;;;;;;4977202;28;20542;-79
2023/09/13 07:33:12;;;;;;;41.47;31.70;;;19.60;99.90;;;;;;4981292;28;20455;-79
2023/09/13 07:35:39;;;;;;;43.97;32.90;;;19.60;99.90;;;;;;4975356;28;20467;-77
2023/09/13 07:38:06;;;;;;;50.47;33.60;;;19.60;99.90;;;;;;4977476;28;20485;-77
2023/09/13 07:40:33;;;;;;;45.07;32.70;;;19.60;99.90;;;;;;4976700;28;20465;-80
2023/09/13 07:43:00;;;;;;;42.87;32.47;;;19.80;99.90;;;;;;4974794;28;20455;-77
2023/09/13 07:45:31;;;;;;;48.73;34.77;;;19.80;99.90;;;;;;4974346;28;20863;-77
2023/09/13 07:48:00;;;;;;;52.50;35.70;;;19.80;99.90;;;;;;4974405;28;20475;-79
2023/09/13 07:50:31;;;;;;;54.77;35.63;;;19.80;99.90;;;;;;4969851;28;20487;-79
2023/09/13 07:52:58;;;;;;;48.63;35.33;;;19.90;99.90;;;;;;4977510;28;20458;-79
2023/09/13 07:55:25;;;;;;;43.23;31.87;;;19.90;99.90;;;;;;4976833;28;20447;-77
2023/09/13 07:57:52;;;;;;;55.20;35.77;;;20.00;99.90;;;;;;4974892;28;20534;-80
2023/09/13 08:00:19;;;;;;;46.57;33.63;;;20.00;99.90;;;;;;4978249;28;20451;-79
2023/09/13 08:02:46;;;;;;;48.37;33.60;;;20.00;99.90;;;;;;4978428;28;20837;-79
2023/09/13 08:05:14;;;;;;;50.70;31.63;;;20.10;99.90;;;;;;4979871;28;20459;-79
2023/09/13 08:07:41;;;;;;;43.73;31.80;;;20.10;99.90;;;;;;4977403;28;20475;-77
2023/09/13 08:10:09;;;;;;;40.30;31.07;;;20.10;99.90;;;;;;4974286;28;20491;-77
2023/09/13 08:12:35;;;;;;;52.10;33.27;;;20.10;99.90;;;;;;4974602;28;20456;-77
2023/09/13 08:15:04;;;;;;;44.07;32.80;;;20.00;99.90;;;;;;4975353;28;20456;-78
2023/09/13 08:17:31;;;;;;;44.40;30.20;;;20.00;99.90;;;;;;4973664;28;20475;-77
2023/09/13 08:19:58;;;;;;;38.60;28.80;;;20.00;99.90;;;;;;4974625;28;20460;-78
2023/09/13 08:22:27;;;;;;;40.63;29.80;;;19.90;99.90;;;;;;4974853;28;20478;-77
2023/09/13 08:24:54;;;;;;;63.53;37.47;;;19.90;99.90;;;;;;4979323;28;20515;-79
2023/09/13 08:27:21;;;;;;;41.00;31.10;;;19.90;99.90;;;;;;4980861;28;20471;-79
2023/09/13 08:29:48;;;;;;;80.73;41.43;;;19.90;99.90;;;;;;4982008;28;20567;-79
2023/09/13 08:32:15;;;;;;;55.57;33.40;;;19.90;99.90;;;;;;4981415;28;20483;-79
2023/09/13 08:34:41;;;;;;;49.93;34.33;;;20.00;99.90;;;;;;4981791;28;20545;-79
2023/09/13 08:37:08;;;;;;;45.07;32.57;;;19.90;99.90;;;;;;4982844;28;20662;-78
2023/09/13 08:39:36;;;;;;;46.33;33.50;;;19.90;99.90;;;;;;4976639;28;20454;-79
2023/09/13 08:42:03;;;;;;;40.53;32.43;;;19.90;99.90;;;;;;4979845;28;20542;-79
2023/09/13 08:44:31;;;;;;;40.97;31.60;;;20.10;99.90;;;;;;4980090;28;20538;-79
2023/09/13 08:47:00;;;;;;;47.73;33.07;;;20.20;99.90;;;;;;4980706;28;20817;-78
2023/09/13 08:49:27;;;;;;;42.83;32.63;;;20.30;99.90;;;;;;4980538;28;20590;-78
2023/09/13 08:51:54;;;;;;;43.67;33.07;;;20.30;99.90;;;;;;4982862;28;20523;-78
2023/09/13 08:54:22;;;;;;;41.97;30.20;;;20.40;99.90;;;;;;4983102;28;20459;-79
2023/09/13 08:56:51;;;;;;;42.40;31.97;;;20.50;99.90;;;;;;4984125;28;20459;-78
2023/09/13 08:59:17;;;;;;;44.13;29.60;;;20.60;99.90;;;;;;4979755;28;20562;-77
2023/09/13 09:01:48;;;;;;;42.67;31.00;;;20.70;99.90;;;;;;4975892;28;20464;-79
2023/09/13 09:04:17;;;;;;;43.70;30.87;;;20.70;99.90;;;;;;4982656;28;20542;-79
2023/09/13 09:06:44;;;;;;;40.47;28.17;;;20.70;99.90;;;;;;4980530;28;20466;-79
2023/09/13 09:09:12;;;;;;;42.43;29.73;;;20.60;99.90;;;;;;4981618;28;20523;-79
2023/09/13 09:11:43;;;;;;;37.47;29.57;;;20.70;99.90;;;;;;4980661;28;20870;-79
2023/09/13 09:14:12;;;;;;;34.10;27.03;;;20.60;99.90;;;;;;4980494;28;20499;-79
2023/09/13 09:16:41;;;;;;;41.87;29.30;;;20.60;99.90;;;;;;4975239;28;20522;-78
2023/09/13 09:19:08;;;;;;;38.53;27.80;;;20.50;99.90;;;;;;4973191;28;20486;-77
2023/09/13 09:21:35;;;;;;;38.80;27.90;;;20.50;99.90;;;;;;4973909;28;20526;-77
2023/09/13 09:24:02;;;;;;;35.20;26.83;;;20.60;99.90;;;;;;4979796;28;20458;-79
2023/09/13 09:26:29;;;;;;;40.43;29.43;;;20.70;99.90;;;;;;4978540;28;20999;-79
2023/09/13 09:28:55;;;;;;;36.83;27.90;;;20.80;99.90;;;;;;4973893;28;20497;-77
2023/09/13 09:31:26;;;;;;;33.80;24.83;;;20.80;99.90;;;;;;4973272;28;20460;-77
2023/09/13 09:34:03;;;;;;;39.80;29.80;;;20.80;99.90;;;;;;4973325;28;20893;-77
2023/09/13 09:36:34;;;;;;;32.70;25.27;;;20.80;99.90;;;;;;4978750;28;20461;-79
2023/09/13 09:39:02;;;;;;;34.80;27.73;;;20.80;99.90;;;;;;4977214;28;20479;-77
2023/09/13 09:41:33;;;;;;;38.30;28.03;;;20.90;99.90;;;;;;4973577;28;20458;-77
2023/09/13 09:43:59;;;;;;;39.07;26.77;;;20.90;99.90;;;;;;4972915;28;20972;-77
2023/09/13 09:46:28;;;;;;;30.93;24.50;;;20.80;99.90;;;;;;4977126;28;20466;-79
2023/09/13 09:48:55;;;;;;;34.00;25.43;;;20.90;99.90;;;;;;4978847;28;20482;-79
2023/09/13 09:51:22;;;;;;;30.00;24.00;;;20.80;99.90;;;;;;4977992;28;20451;-79
2023/09/13 09:53:49;;;;;;;33.13;25.67;;;20.80;99.90;;;;;;4978489;28;20459;-79
2023/09/13 09:56:17;;;;;;;38.77;28.10;;;20.70;99.90;;;;;;4974986;28;20451;-77
2023/09/13 09:58:46;;;;;;;36.03;26.80;;;20.80;99.90;;;;;;4973770;28;20476;-79
2023/09/13 10:01:13;;;;;;;36.47;26.67;;;21.10;99.90;;;;;;4976658;28;20462;-77
2023/09/13 10:03:41;;;;;;;32.80;23.20;;;21.40;99.90;;;;;;4973336;28;20543;-77
2023/09/13 10:06:11;;;;;;;27.00;21.43;;;21.50;99.90;;;;;;4972947;28;20971;-77
2023/09/13 10:08:42;;;;;;;23.70;20.80;;;21.50;99.90;;;;;;4972558;28;20483;-77
2023/09/13 10:11:10;;;;;;;25.97;21.37;;;21.50;99.90;;;;;;4974823;28;20517;-79
2023/09/13 10:13:38;;;;;;;28.93;22.37;;;21.40;99.90;;;;;;4978793;28;20458;-80
2023/09/13 10:16:07;;;;;;;13.13;10.70;;;21.10;99.90;;;;;;4979878;28;20546;-79
2023/09/13 10:18:39;;;;;;;8.37;6.97;;;20.80;99.90;;;;;;4981234;28;20483;-79
2023/09/13 10:21:08;;;;;;;7.73;6.00;;;20.20;99.90;;;;;;4979507;28;20452;-79
2023/09/13 10:23:40;;;;;;;7.40;5.80;;;20.00;99.90;;;;;;4978406;28;20546;-80
2023/09/13 10:26:13;;;;;;;7.20;5.60;;;19.70;99.90;;;;;;4980875;28;20468;-80
2023/09/13 10:28:42;;;;;;;6.87;4.90;;;19.50;99.90;;;;;;4981642;28;20474;-80
2023/09/13 10:31:15;;;;;;;8.10;4.50;;;19.40;99.90;;;;;;4982350;28;21087;-80
2023/09/13 10:33:45;;;;;;;7.33;4.73;;;19.40;99.90;;;;;;4981576;28;20864;-77
2023/09/13 10:36:22;;;;;;;5.73;3.77;;;19.40;99.90;;;;;;4982170;28;20451;-79
2023/09/13 10:39:00;;;;;;;5.77;4.87;;;19.50;99.90;;;;;;4983519;28;20555;-78
2023/09/13 10:41:32;;;;;;;6.33;4.03;;;19.50;99.90;;;;;;4981992;28;20447;-79
2023/09/13 10:43:59;;;;;;;7.13;3.97;;;19.40;99.90;;;;;;4982615;28;20711;-79
2023/09/13 10:46:26;;;;;;;4.97;3.67;;;19.30;99.90;;;;;;4981416;28;20519;-79
2023/09/13 10:48:54;;;;;;;4.43;2.70;;;19.40;99.90;;;;;;4981156;28;20558;-79
2023/09/13 10:51:23;;;;;;;5.73;4.47;;;19.20;99.90;;;;;;4983106;28;21050;-79
2023/09/13 10:53:50;;;;;;;6.60;3.77;;;19.20;99.90;;;;;;4981545;28;20469;-77
2023/09/13 10:56:19;;;;;;;3.67;2.83;;;19.30;99.90;;;;;;4980861;28;20542;-80
2023/09/13 10:58:48;;;;;;;6.60;3.83;;;19.20;99.90;;;;;;4982057;28;20498;-79
2023/09/13 11:01:16;;;;;;;5.23;3.13;;;19.20;99.90;;;;;;4987071;28;21023;-79
2023/09/13 11:03:42;;;;;;;3.40;3.10;;;19.10;99.90;;;;;;4983443;28;20531;-80
2023/09/13 11:06:10;;;;;;;4.00;2.63;;;19.10;99.90;;;;;;4981971;28;20765;-79
2023/09/13 11:08:38;;;;;;;4.80;3.00;;;19.00;99.90;;;;;;4981912;28;20560;-79
2023/09/13 11:11:11;;;;;;;4.60;2.93;;;19.10;99.90;;;;;;4983411;28;20503;-79
2023/09/13 11:13:38;;;;;;;3.90;2.90;;;19.30;99.90;;;;;;4983508;28;20460;-79
2023/09/13 11:16:06;;;;;;;3.20;2.83;;;19.50;99.90;;;;;;4984232;28;20550;-80
2023/09/13 11:18:33;;;;;;;4.23;2.40;;;19.50;99.90;;;;;;4983457;28;20490;-80
2023/09/13 11:21:00;;;;;;;2.77;2.20;;;19.40;99.90;;;;;;4983751;28;20523;-80
2023/09/13 11:23:33;;;;;;;2.73;1.83;;;19.30;99.90;;;;;;4983722;28;21041;-80
2023/09/13 11:26:04;;;;;;;3.50;2.10;;;19.20;99.90;;;;;;4981667;28;20455;-80
2023/09/13 11:28:44;;;;;;;3.20;1.97;;;19.10;99.90;;;;;;4982789;28;20480;-80
2023/09/13 11:31:13;;;;;;;2.80;2.03;;;19.00;99.90;;;;;;4983085;28;20884;-80
2023/09/13 11:33:46;;;;;;;3.70;2.13;;;18.80;99.90;;;;;;4984418;28;20463;-80
2023/09/13 11:36:16;;;;;;;3.77;1.90;;;18.90;99.90;;;;;;4982883;28;20502;-79
2023/09/13 11:38:43;;;;;;;2.87;2.13;;;19.00;99.90;;;;;;4981489;28;20479;-80
2023/09/13 11:41:17;;;;;;;4.97;2.60;;;19.00;99.90;;;;;;4982707;28;20486;-79
2023/09/13 11:43:44;;;;;;;2.77;2.37;;;19.00;99.90;;;;;;4984328;28;20474;-79
2023/09/13 11:46:12;;;;;;;2.80;2.20;;;19.00;99.90;;;;;;4985055;28;20459;-79
2023/09/13 11:48:40;;;;;;;3.30;2.40;;;19.00;99.90;;;;;;4982497;28;21046;-79
2023/09/13 11:51:12;;;;;;;6.30;2.90;;;19.10;99.90;;;;;;4982279;28;20487;-80
2023/09/13 11:53:39;;;;;;;2.70;2.07;;;19.40;99.90;;;;;;4981869;28;20487;-80
2023/09/13 11:56:07;;;;;;;2.83;2.10;;;19.90;99.90;;;;;;4981454;28;20908;-78
2023/09/13 11:58:37;;;;;;;3.27;2.10;;;20.10;99.90;;;;;;4979272;28;20479;-78
2023/09/13 12:01:06;;;;;;;3.37;1.70;;;20.20;99.90;;;;;;4981700;28;20456;-80
2023/09/13 12:03:35;;;;;;;3.97;2.00;;;20.40;99.90;;;;;;4981252;28;20665;-81
2023/09/13 12:06:03;;;;;;;3.60;2.33;;;20.80;99.90;;;;;;4980244;28;20529;-80
2023/09/13 12:08:37;;;;;;;3.40;2.47;;;20.70;99.90;;;;;;4980009;28;20922;-78
2023/09/13 12:11:06;;;;;;;3.23;1.60;;;20.60;99.90;;;;;;4980185;28;20587;-80
2023/09/13 12:13:44;;;;;;;3.40;1.83;;;20.60;99.90;;;;;;4977360;28;20503;-79
2023/09/13 12:16:12;;;;;;;3.37;2.27;;;20.40;99.90;;;;;;4978596;28;20463;-81
2023/09/13 12:18:39;;;;;;;4.00;2.00;;;20.40;99.90;;;;;;4978275;28;20623;-80
2023/09/13 12:21:07;;;;;;;2.90;2.03;;;20.30;99.90;;;;;;4979514;28;20458;-81
2023/09/13 12:23:35;;;;;;;4.40;1.87;;;20.30;99.90;;;;;;4979604;28;20462;-81
2023/09/13 12:26:04;;;;;;;3.73;1.80;;;20.30;99.90;;;;;;4979287;28;20547;-81
2023/09/13 12:28:34;;;;;;;4.53;1.73;;;20.20;99.90;;;;;;4978268;28;20472;-80
2023/09/13 12:31:06;;;;;;;3.40;1.60;;;20.10;99.90;;;;;;4972076;28;21016;-80
2023/09/13 12:33:34;;;;;;;2.37;1.50;;;20.00;99.90;;;;;;4974862;28;20455;-79